Time;durP1;ratioP1;P1;durP2;ratioP2;P2;SDS_P1;SDS_P2;PMS_P1;PMS_P2;Temp;Humidity;BMP_temperature;BMP_pressure;BME280_temperature;BME280_humidity;BME280_pressure;Samples;Min_cycle;Max_cycle;Signal;HPM_P1;HPM_P2
2022/07/24 00:02:04;;;;;;;5.97;5.30;;;;;;;;;;5094896;28;20529;-64
2022/07/24 00:04:31;;;;;;;5.33;4.80;;;;;;;;;;5095119;28;20489;-65
2022/07/24 00:06:59;;;;;;;5.47;4.70;;;;;;;;;;5094770;28;20443;-64
2022/07/24 00:09:27;;;;;;;7.20;5.30;;;;;;;;;;5095156;28;20540;-64
2022/07/24 00:11:54;;;;;;;6.13;5.63;;;;;;;;;;5094901;28;20437;-64
2022/07/24 00:14:21;;;;;;;5.20;4.80;;;;;;;;;;5094697;28;20533;-64
2022/07/24 00:16:48;;;;;;;6.93;5.30;;;;;;;;;;5094719;28;20803;-64
2022/07/24 00:19:16;;;;;;;6.03;5.53;;;;;;;;;;5094569;28;20442;-64
2022/07/24 00:21:43;;;;;;;7.23;5.97;;;;;;;;;;5094463;28;20453;-64
2022/07/24 00:24:11;;;;;;;5.33;4.83;;;;;;;;;;5094706;28;20443;-64
2022/07/24 00:26:39;;;;;;;6.00;5.50;;;;;;;;;;5094818;28;20525;-64
2022/07/24 00:29:06;;;;;;;5.70;5.20;;;;;;;;;;5094994;28;20477;-63
2022/07/24 00:31:34;;;;;;;6.20;5.70;;;;;;;;;;5094205;28;20446;-64
2022/07/24 00:34:01;;;;;;;6.07;5.47;;;;;;;;;;5094598;28;20442;-64
2022/07/24 00:36:28;;;;;;;7.70;5.80;;;;;;;;;;5094455;28;20439;-64
2022/07/24 00:38:55;;;;;;;5.87;4.93;;;;;;;;;;5094102;28;20558;-65
2022/07/24 00:41:24;;;;;;;8.80;5.60;;;;;;;;;;5094388;28;20489;-64
2022/07/24 00:44:04;;;;;;;7.93;5.20;;;;;;;;;;5094376;28;20481;-64
2022/07/24 00:46:32;;;;;;;5.47;5.07;;;;;;;;;;5094527;28;20509;-64
2022/07/24 00:48:59;;;;;;;6.00;5.50;;;;;;;;;;5094911;28;20495;-65
2022/07/24 00:51:27;;;;;;;5.73;5.23;;;;;;;;;;5094220;28;20476;-65
2022/07/24 00:53:54;;;;;;;6.53;5.93;;;;;;;;;;5094220;28;20540;-64
2022/07/24 00:56:21;;;;;;;7.17;5.73;;;;;;;;;;5093269;28;20449;-64
2022/07/24 00:58:50;;;;;;;6.20;5.60;;;;;;;;;;5093777;28;20478;-64
2022/07/24 01:01:18;;;;;;;6.60;5.87;;;;;;;;;;5094147;28;20787;-64
2022/07/24 01:03:46;;;;;;;7.30;6.07;;;;;;;;;;5093846;28;20943;-64
2022/07/24 01:06:13;;;;;;;5.90;5.50;;;;;;;;;;5093579;28;20456;-64
2022/07/24 01:08:42;;;;;;;6.40;5.80;;;;;;;;;;5093698;28;20485;-64
2022/07/24 01:11:10;;;;;;;6.43;5.83;;;;;;;;;;5093587;28;20443;-64
2022/07/24 01:13:38;;;;;;;6.93;5.47;;;;;;;;;;5094151;28;20452;-64
2022/07/24 01:16:07;;;;;;;5.40;4.90;;;;;;;;;;5093265;28;20483;-65
2022/07/24 01:18:34;;;;;;;6.80;6.30;;;;;;;;;;5094280;28;20567;-64
2022/07/24 01:21:03;;;;;;;7.40;5.13;;;;;;;;;;5093854;28;20534;-64
2022/07/24 01:23:30;;;;;;;6.27;5.67;;;;;;;;;;5093747;28;20444;-64
2022/07/24 01:25:57;;;;;;;9.03;6.40;;;;;;;;;;5093859;28;20526;-64
2022/07/24 01:28:25;;;;;;;7.30;6.70;;;;;;;;;;5093456;28;20507;-64
2022/07/24 01:30:52;;;;;;;6.20;5.70;;;;;;;;;;5093795;28;20800;-64
2022/07/24 01:33:19;;;;;;;6.90;6.30;;;;;;;;;;5093644;28;20472;-64
2022/07/24 01:35:46;;;;;;;7.20;6.60;;;;;;;;;;5093556;28;20443;-65
2022/07/24 01:38:15;;;;;;;8.80;7.17;;;;;;;;;;5093225;28;20491;-64
2022/07/24 01:40:42;;;;;;;7.53;6.87;;;;;;;;;;5093724;28;20446;-64
2022/07/24 01:43:09;;;;;;;9.10;7.00;;;;;;;;;;5093758;28;20434;-64
2022/07/24 01:45:37;;;;;;;8.10;7.10;;;;;;;;;;5093551;28;20863;-64
2022/07/24 01:48:05;;;;;;;7.00;6.10;;;;;;;;;;5093464;28;20453;-65
2022/07/24 01:50:32;;;;;;;8.30;6.00;;;;;;;;;;5093498;28;20444;-65
2022/07/24 01:53:01;;;;;;;7.07;6.03;;;;;;;;;;5093415;28;20525;-64
2022/07/24 01:55:30;;;;;;;7.40;6.20;;;;;;;;;;5093072;28;20462;-64
2022/07/24 01:57:57;;;;;;;5.97;5.33;;;;;;;;;;5093306;28;20869;-64
2022/07/24 02:00:24;;;;;;;7.20;6.30;;;;;;;;;;5093136;28;20529;-64
2022/07/24 02:02:52;;;;;;;7.20;6.60;;;;;;;;;;5093504;28;20448;-63
2022/07/24 02:05:19;;;;;;;6.87;6.03;;;;;;;;;;5093416;28;20550;-64
2022/07/24 02:07:46;;;;;;;7.63;6.87;;;;;;;;;;5095369;28;20457;-64
2022/07/24 02:10:14;;;;;;;7.63;6.93;;;;;;;;;;5097342;28;20440;-64
2022/07/24 02:12:43;;;;;;;7.10;6.43;;;;;;;;;;5096973;28;20931;-64
2022/07/24 02:15:10;;;;;;;7.63;6.97;;;;;;;;;;5097372;28;21027;-64
2022/07/24 02:17:38;;;;;;;7.60;7.00;;;;;;;;;;5096964;28;20971;-65
2022/07/24 02:20:05;;;;;;;8.83;7.27;;;;;;;;;;5096880;28;20449;-64
2022/07/24 02:22:33;;;;;;;10.33;7.50;;;;;;;;;;5097419;28;20446;-64
2022/07/24 02:25:01;;;;;;;11.47;7.40;;;;;;;;;;5096691;28;20928;-64
2022/07/24 02:27:28;;;;;;;7.67;6.97;;;;;;;;;;5097227;28;20443;-64
2022/07/24 02:29:56;;;;;;;7.53;6.83;;;;;;;;;;5097267;28;20439;-64
2022/07/24 02:32:24;;;;;;;10.20;7.30;;;;;;;;;;5096968;28;20445;-64
2022/07/24 02:34:51;;;;;;;9.53;7.77;;;;;;;;;;5096588;28;20479;-64
2022/07/24 02:37:19;;;;;;;9.03;7.17;;;;;;;;;;5096816;28;20442;-64
2022/07/24 02:39:46;;;;;;;8.60;7.70;;;;;;;;;;5096799;28;20515;-64
2022/07/24 02:42:13;;;;;;;8.30;7.60;;;;;;;;;;5096635;28;21004;-64
2022/07/24 02:44:40;;;;;;;11.27;8.60;;;;;;;;;;5096682;28;20533;-64
2022/07/24 02:47:09;;;;;;;8.00;7.23;;;;;;;;;;5096685;28;20450;-64
2022/07/24 02:49:36;;;;;;;8.83;8.00;;;;;;;;;;5096581;28;21025;-64
2022/07/24 02:52:03;;;;;;;10.17;9.07;;;;;;;;;;5096444;28;20442;-64
2022/07/24 02:54:31;;;;;;;9.70;8.70;;;;;;;;;;5096506;28;20452;-64
2022/07/24 02:56:58;;;;;;;9.17;8.37;;;;;;;;;;5096880;28;20546;-64
2022/07/24 02:59:25;;;;;;;9.17;8.23;;;;;;;;;;5096419;28;20486;-64
2022/07/24 03:01:52;;;;;;;8.80;8.10;;;;;;;;;;5095985;28;20446;-65
2022/07/24 03:04:21;;;;;;;9.20;8.30;;;;;;;;;;5096391;28;20525;-64
2022/07/24 03:06:48;;;;;;;8.73;7.97;;;;;;;;;;5096337;28;20466;-64
2022/07/24 03:09:15;;;;;;;10.23;8.73;;;;;;;;;;5095805;28;20949;-64
2022/07/24 03:11:43;;;;;;;10.40;9.40;;;;;;;;;;5096339;28;20442;-64
2022/07/24 03:14:10;;;;;;;10.60;9.57;;;;;;;;;;5096166;28;20550;-64
2022/07/24 03:16:37;;;;;;;13.13;8.40;;;;;;;;;;5096040;28;20546;-64
2022/07/24 03:19:04;;;;;;;9.20;8.40;;;;;;;;;;5094845;28;20577;-64
2022/07/24 03:21:33;;;;;;;9.80;8.80;;;;;;;;;;5095974;28;20438;-64
2022/07/24 03:24:00;;;;;;;9.80;8.90;;;;;;;;;;5095715;28;20545;-64
2022/07/24 03:26:27;;;;;;;9.93;9.03;;;;;;;;;;5095909;28;20837;-64
2022/07/24 03:28:55;;;;;;;10.17;9.17;;;;;;;;;;5095471;28;20534;-64
2022/07/24 03:31:22;;;;;;;22.23;11.30;;;;;;;;;;5096155;28;20853;-64
2022/07/24 03:33:49;;;;;;;10.13;9.20;;;;;;;;;;5095355;28;20523;-64
2022/07/24 03:36:16;;;;;;;11.10;9.87;;;;;;;;;;5096249;28;20443;-64
2022/07/24 03:38:45;;;;;;;10.60;9.50;;;;;;;;;;5095504;28;20488;-64
2022/07/24 03:41:12;;;;;;;10.07;9.13;;;;;;;;;;5095672;28;20439;-64
2022/07/24 03:43:39;;;;;;;9.37;8.50;;;;;;;;;;5095561;28;20443;-64
2022/07/24 03:46:06;;;;;;;9.40;8.50;;;;;;;;;;5095208;28;20525;-64
2022/07/24 03:48:33;;;;;;;11.30;8.27;;;;;;;;;;5095424;28;20447;-64
2022/07/24 03:51:01;;;;;;;10.27;9.40;;;;;;;;;;5095153;28;20449;-64
2022/07/24 03:53:28;;;;;;;10.63;9.13;;;;;;;;;;5095191;28;20874;-64
2022/07/24 03:55:57;;;;;;;16.33;8.40;;;;;;;;;;5095344;28;20523;-64
2022/07/24 03:58:24;;;;;;;9.90;9.00;;;;;;;;;;5094825;28;20472;-64
2022/07/24 04:00:51;;;;;;;10.27;9.40;;;;;;;;;;5095351;28;20540;-64
2022/07/24 04:03:19;;;;;;;10.73;9.73;;;;;;;;;;5095414;28;20440;-64
2022/07/24 04:05:46;;;;;;;9.50;8.47;;;;;;;;;;5095159;28;20883;-64
2022/07/24 04:08:13;;;;;;;11.93;8.60;;;;;;;;;;5095678;28;20447;-64
2022/07/24 04:10:40;;;;;;;10.60;9.50;;;;;;;;;;5094784;28;20532;-64
2022/07/24 04:13:09;;;;;;;12.27;8.97;;;;;;;;;;5094599;28;20936;-64
2022/07/24 04:15:36;;;;;;;11.00;9.97;;;;;;;;;;5094159;28;20440;-64
2022/07/24 04:18:03;;;;;;;11.63;8.97;;;;;;;;;;5093116;28;20447;-64
2022/07/24 04:20:30;;;;;;;9.97;8.97;;;;;;;;;;5094545;28;20445;-64
2022/07/24 04:22:58;;;;;;;12.47;10.27;;;;;;;;;;5095251;28;20486;-66
2022/07/24 04:25:25;;;;;;;9.50;8.70;;;;;;;;;;5094710;28;20456;-64
2022/07/24 04:27:52;;;;;;;9.90;9.00;;;;;;;;;;5094680;28;20446;-64
2022/07/24 04:30:21;;;;;;;10.90;9.83;;;;;;;;;;5094488;28;20441;-64
2022/07/24 04:32:48;;;;;;;9.00;8.20;;;;;;;;;;5094572;28;20931;-64
2022/07/24 04:35:15;;;;;;;9.70;8.80;;;;;;;;;;5094764;28;20526;-64
2022/07/24 04:37:42;;;;;;;9.40;8.50;;;;;;;;;;5094749;28;20445;-64
2022/07/24 04:40:10;;;;;;;10.20;8.80;;;;;;;;;;5094318;28;20475;-64
2022/07/24 04:42:37;;;;;;;9.37;8.47;;;;;;;;;;5094591;28;20447;-64
2022/07/24 04:45:05;;;;;;;8.90;8.10;;;;;;;;;;5093602;28;21052;-64
2022/07/24 04:47:33;;;;;;;10.37;9.50;;;;;;;;;;5093957;28;20496;-64
2022/07/24 04:50:01;;;;;;;11.13;8.90;;;;;;;;;;5094372;28;20536;-64
2022/07/24 04:52:28;;;;;;;9.53;8.63;;;;;;;;;;5094248;28;20441;-64
2022/07/24 04:54:55;;;;;;;11.93;9.90;;;;;;;;;;5094421;28;20460;-64
2022/07/24 04:57:22;;;;;;;9.40;8.60;;;;;;;;;;5093870;28;20533;-64
2022/07/24 04:59:49;;;;;;;10.47;9.47;;;;;;;;;;5093679;28;20476;-64
2022/07/24 05:02:17;;;;;;;12.57;9.63;;;;;;;;;;5094177;28;20532;-64
2022/07/24 05:04:45;;;;;;;10.00;9.00;;;;;;;;;;5093553;28;20454;-64
2022/07/24 05:07:13;;;;;;;10.17;9.07;;;;;;;;;;5094030;28;20564;-64
2022/07/24 05:09:40;;;;;;;9.57;8.67;;;;;;;;;;5093644;28;21005;-64
2022/07/24 05:12:07;;;;;;;9.63;8.70;;;;;;;;;;5094018;28;20462;-64
2022/07/24 05:14:34;;;;;;;10.67;9.57;;;;;;;;;;5093960;28;20518;-64
2022/07/24 05:17:02;;;;;;;9.70;8.90;;;;;;;;;;5093974;28;20472;-64
2022/07/24 05:19:29;;;;;;;10.17;9.30;;;;;;;;;;5093388;28;20477;-64
2022/07/24 05:21:57;;;;;;;9.77;8.83;;;;;;;;;;5093805;28;20443;-64
2022/07/24 05:24:25;;;;;;;10.83;9.70;;;;;;;;;;5093688;28;20569;-64
2022/07/24 05:26:53;;;;;;;9.30;8.40;;;;;;;;;;5093015;28;20450;-65
2022/07/24 05:29:20;;;;;;;10.47;9.43;;;;;;;;;;5093347;28;20540;-66
2022/07/24 05:31:47;;;;;;;9.67;8.83;;;;;;;;;;5093367;28;20489;-65
2022/07/24 05:34:14;;;;;;;9.57;8.67;;;;;;;;;;5093210;28;20545;-65
2022/07/24 05:36:42;;;;;;;9.60;8.73;;;;;;;;;;5093631;28;20433;-65
2022/07/24 05:39:10;;;;;;;11.10;9.00;;;;;;;;;;5093140;28;20478;-65
2022/07/24 05:41:37;;;;;;;10.10;9.23;;;;;;;;;;5092680;28;20435;-66
2022/07/24 05:44:05;;;;;;;10.13;9.10;;;;;;;;;;5093519;28;20535;-66
2022/07/24 05:46:32;;;;;;;10.00;9.00;;;;;;;;;;5092999;28;20437;-65
2022/07/24 05:48:59;;;;;;;10.70;8.40;;;;;;;;;;5093045;28;20455;-65
2022/07/24 05:51:26;;;;;;;10.57;9.57;;;;;;;;;;5093423;28;20446;-64
2022/07/24 05:53:53;;;;;;;9.83;8.97;;;;;;;;;;5093350;28;20556;-65
2022/07/24 05:56:22;;;;;;;10.00;9.00;;;;;;;;;;5093054;28;20443;-65
2022/07/24 05:58:49;;;;;;;9.20;8.23;;;;;;;;;;5093375;28;20469;-65
2022/07/24 06:01:16;;;;;;;10.00;9.00;;;;;;;;;;5092952;28;20443;-64
2022/07/24 06:03:44;;;;;;;9.13;7.90;;;;;;;;;;5093376;28;20931;-64
2022/07/24 06:06:11;;;;;;;11.40;9.10;;;;;;;;;;5092828;28;20443;-62
2022/07/24 06:08:38;;;;;;;9.47;8.43;;;;;;;;;;5093104;28;20478;-64
2022/07/24 06:11:05;;;;;;;8.40;7.53;;;;;;;;;;5093192;28;20455;-63
2022/07/24 06:13:34;;;;;;;7.77;6.93;;;;;;;;;;5093442;28;20448;-63
2022/07/24 06:16:01;;;;;;;8.80;7.93;;;;;;;;;;5092719;28;20473;-63
2022/07/24 06:18:28;;;;;;;8.47;7.77;;;;;;;;;;5093412;28;20450;-63
2022/07/24 06:20:55;;;;;;;8.73;7.77;;;;;;;;;;5093113;28;20473;-63
2022/07/24 06:23:23;;;;;;;9.03;6.70;;;;;;;;;;5093925;28;20530;-64
2022/07/24 06:25:50;;;;;;;7.83;7.13;;;;;;;;;;5092884;28;20448;-63
2022/07/24 06:28:17;;;;;;;8.93;7.93;;;;;;;;;;5093272;28;20537;-64
2022/07/24 06:30:46;;;;;;;6.80;6.20;;;;;;;;;;5092739;28;21044;-63
2022/07/24 06:33:13;;;;;;;7.50;6.90;;;;;;;;;;5092785;28;20969;-64
2022/07/24 06:35:40;;;;;;;10.20;7.60;;;;;;;;;;5093189;28;20442;-63
2022/07/24 06:38:09;;;;;;;8.40;7.20;;;;;;;;;;5092806;28;20449;-64
2022/07/24 06:40:36;;;;;;;8.90;7.07;;;;;;;;;;5092861;28;20510;-64
2022/07/24 06:43:04;;;;;;;11.83;7.10;;;;;;;;;;5093010;28;20497;-64
2022/07/24 06:45:32;;;;;;;10.53;7.03;;;;;;;;;;5092370;28;20450;-64
2022/07/24 06:48:00;;;;;;;7.03;6.27;;;;;;;;;;5093029;28;20844;-64
2022/07/24 06:50:28;;;;;;;6.50;6.00;;;;;;;;;;5093261;28;20443;-64
2022/07/24 06:52:55;;;;;;;6.90;6.30;;;;;;;;;;5093160;28;20573;-64
2022/07/24 06:55:23;;;;;;;8.00;6.07;;;;;;;;;;5096350;28;20451;-64
2022/07/24 06:57:50;;;;;;;6.93;6.33;;;;;;;;;;5096703;28;20469;-64
2022/07/24 07:00:17;;;;;;;6.80;6.20;;;;;;;;;;5096253;28;20481;-64
2022/07/24 07:02:45;;;;;;;6.50;5.97;;;;;;;;;;5096756;28;20515;-64
2022/07/24 07:05:14;;;;;;;7.40;6.70;;;;;;;;;;5096174;28;20443;-64
2022/07/24 07:07:42;;;;;;;10.43;6.50;;;;;;;;;;5096207;28;20441;-63
2022/07/24 07:10:09;;;;;;;8.20;7.03;;;;;;;;;;5096262;28;20439;-64
2022/07/24 07:12:37;;;;;;;10.47;6.97;;;;;;;;;;5095841;28;20941;-64
2022/07/24 07:15:04;;;;;;;9.50;6.40;;;;;;;;;;5096405;28;20523;-64
2022/07/24 07:17:32;;;;;;;7.10;6.50;;;;;;;;;;5096340;28;20991;-64
2022/07/24 07:19:59;;;;;;;6.47;5.87;;;;;;;;;;5095698;28;20475;-63
2022/07/24 07:22:28;;;;;;;8.03;6.93;;;;;;;;;;5095484;28;20852;-63
2022/07/24 07:24:55;;;;;;;10.53;7.30;;;;;;;;;;5095529;28;20466;-63
2022/07/24 07:27:22;;;;;;;7.33;6.57;;;;;;;;;;5095479;28;20451;-63
2022/07/24 07:29:49;;;;;;;7.27;6.50;;;;;;;;;;5095815;28;20448;-63
2022/07/24 07:32:17;;;;;;;10.27;7.23;;;;;;;;;;5095073;28;20445;-63
2022/07/24 07:34:44;;;;;;;7.50;6.80;;;;;;;;;;5095439;28;20448;-63
2022/07/24 07:37:11;;;;;;;7.80;6.70;;;;;;;;;;5095398;28;20945;-63
2022/07/24 07:39:40;;;;;;;13.00;11.80;;;;;;;;;;5095650;28;20478;-63
2022/07/24 07:42:07;;;;;;;7.37;6.70;;;;;;;;;;5095523;28;20476;-63
2022/07/24 07:44:34;;;;;;;7.67;6.70;;;;;;;;;;5095455;28;20951;-63
2022/07/24 07:47:02;;;;;;;7.30;6.60;;;;;;;;;;5094732;28;20450;-63
2022/07/24 07:49:29;;;;;;;8.83;6.70;;;;;;;;;;5095188;28;20455;-63
2022/07/24 07:51:56;;;;;;;7.07;6.37;;;;;;;;;;5095456;28;20442;-64
2022/07/24 07:54:23;;;;;;;11.47;7.33;;;;;;;;;;5094991;28;20533;-63
2022/07/24 07:56:52;;;;;;;8.17;7.30;;;;;;;;;;5095324;28;20444;-63
2022/07/24 07:59:19;;;;;;;7.90;7.07;;;;;;;;;;5095315;28;20437;-64
2022/07/24 08:01:46;;;;;;;9.97;7.00;;;;;;;;;;5095076;28;20539;-63
2022/07/24 08:04:13;;;;;;;9.20;8.03;;;;;;;;;;5094759;28;20440;-64
2022/07/24 08:06:41;;;;;;;8.53;7.73;;;;;;;;;;5094651;28;20442;-64
2022/07/24 08:09:08;;;;;;;8.67;7.77;;;;;;;;;;5094823;28;20945;-64
2022/07/24 08:11:35;;;;;;;9.80;7.80;;;;;;;;;;5094767;28;20442;-63
2022/07/24 08:14:04;;;;;;;8.27;7.40;;;;;;;;;;5095038;28;20532;-63
2022/07/24 08:16:31;;;;;;;7.57;6.93;;;;;;;;;;5095099;28;20557;-65
2022/07/24 08:18:58;;;;;;;7.90;7.10;;;;;;;;;;5094921;28;20442;-64
2022/07/24 08:21:25;;;;;;;8.23;6.50;;;;;;;;;;5094647;28;20572;-64
2022/07/24 08:23:52;;;;;;;8.40;7.50;;;;;;;;;;5094836;28;20536;-64
2022/07/24 08:26:20;;;;;;;7.50;6.80;;;;;;;;;;5094768;28;20444;-64
2022/07/24 08:28:47;;;;;;;9.67;6.70;;;;;;;;;;5094744;28;20433;-64
2022/07/24 08:31:16;;;;;;;8.67;7.70;;;;;;;;;;5095552;28;20450;-63
2022/07/24 08:33:43;;;;;;;8.50;7.70;;;;;;;;;;5094558;28;20769;-64
2022/07/24 08:36:10;;;;;;;8.37;7.47;;;;;;;;;;5094627;28;20529;-63
2022/07/24 08:38:37;;;;;;;8.70;7.07;;;;;;;;;;5094415;28;20450;-64
2022/07/24 08:41:05;;;;;;;8.50;7.77;;;;;;;;;;5094731;28;20477;-63
2022/07/24 08:43:32;;;;;;;7.57;6.83;;;;;;;;;;5094410;28;20458;-63
2022/07/24 08:46:01;;;;;;;8.20;7.50;;;;;;;;;;5094494;28;20536;-63
2022/07/24 08:48:30;;;;;;;7.93;6.70;;;;;;;;;;5093948;28;20446;-64
2022/07/24 08:51:00;;;;;;;8.47;7.67;;;;;;;;;;5093987;28;20447;-64
2022/07/24 08:53:27;;;;;;;7.50;6.90;;;;;;;;;;5093765;28;20927;-63
2022/07/24 08:55:54;;;;;;;7.40;6.43;;;;;;;;;;5094346;28;20632;-63
2022/07/24 08:58:21;;;;;;;9.23;7.70;;;;;;;;;;5094115;28;20449;-63
2022/07/24 09:00:48;;;;;;;8.97;7.63;;;;;;;;;;5093676;28;20474;-63
2022/07/24 09:03:16;;;;;;;8.17;5.97;;;;;;;;;;5094056;28;20530;-63
2022/07/24 09:05:57;;;;;;;7.00;6.40;;;;;;;;;;5093820;28;20531;-63
2022/07/24 09:08:24;;;;;;;7.43;6.90;;;;;;;;;;5094185;28;20799;-63
2022/07/24 09:10:55;;;;;;;7.70;6.50;;;;;;;;;;5093686;28;20483;-63
2022/07/24 09:13:26;;;;;;;15.80;7.03;;;;;;;;;;5093585;28;20519;-63
2022/07/24 09:15:53;;;;;;;11.77;7.20;;;;;;;;;;5093343;28;20535;-63
2022/07/24 09:18:27;;;;;;;7.70;7.00;;;;;;;;;;5093447;28;20523;-62
2022/07/24 09:20:54;;;;;;;8.40;7.17;;;;;;;;;;5093680;28;20484;-63
2022/07/24 09:23:23;;;;;;;7.53;6.83;;;;;;;;;;5093911;28;20443;-63
2022/07/24 09:25:51;;;;;;;9.53;7.23;;;;;;;;;;5093851;28;20521;-63
2022/07/24 09:28:19;;;;;;;8.00;7.27;;;;;;;;;;5093690;28;20535;-63
2022/07/24 09:30:48;;;;;;;8.50;7.20;;;;;;;;;;5094272;28;20446;-63
2022/07/24 09:33:19;;;;;;;7.30;6.70;;;;;;;;;;5093284;28;21011;-63
2022/07/24 09:35:47;;;;;;;8.53;7.70;;;;;;;;;;5093871;28;20504;-63
2022/07/24 09:38:15;;;;;;;9.27;6.97;;;;;;;;;;5093569;28;20513;-63
2022/07/24 09:40:46;;;;;;;8.80;7.90;;;;;;;;;;5093212;28;20472;-63
2022/07/24 09:43:14;;;;;;;7.93;7.30;;;;;;;;;;5093957;28;20427;-62
2022/07/24 09:45:55;;;;;;;7.90;7.10;;;;;;;;;;5093700;28;20520;-62
2022/07/24 09:48:23;;;;;;;7.83;7.03;;;;;;;;;;5093448;28;20468;-63
2022/07/24 09:50:51;;;;;;;8.23;7.50;;;;;;;;;;5094061;28;20476;-62
2022/07/24 09:53:19;;;;;;;8.20;7.27;;;;;;;;;;5093543;28;20441;-64
2022/07/24 09:55:57;;;;;;;7.90;7.17;;;;;;;;;;5093133;28;21005;-63
2022/07/24 09:58:25;;;;;;;7.60;6.87;;;;;;;;;;5093042;28;20437;-63
2022/07/24 10:00:55;;;;;;;8.63;7.90;;;;;;;;;;5093322;28;20488;-63
2022/07/24 10:03:25;;;;;;;9.27;8.03;;;;;;;;;;5093026;28;20439;-63
2022/07/24 10:05:55;;;;;;;9.07;8.00;;;;;;;;;;5093414;28;20440;-64
2022/07/24 10:08:23;;;;;;;9.13;7.33;;;;;;;;;;5093645;28;20442;-63
2022/07/24 10:10:52;;;;;;;8.03;7.43;;;;;;;;;;5092774;28;20552;-63
2022/07/24 10:13:19;;;;;;;7.97;7.30;;;;;;;;;;5092326;28;20529;-63
2022/07/24 10:15:54;;;;;;;8.53;7.73;;;;;;;;;;5093113;28;20477;-63
2022/07/24 10:18:24;;;;;;;9.67;7.70;;;;;;;;;;5093223;28;20924;-63
2022/07/24 10:20:58;;;;;;;9.70;6.80;;;;;;;;;;5092734;28;20479;-62
2022/07/24 10:23:28;;;;;;;8.70;7.10;;;;;;;;;;5092765;28;20431;-63
2022/07/24 10:26:01;;;;;;;9.07;8.23;;;;;;;;;;5093560;28;20437;-63
2022/07/24 10:28:36;;;;;;;9.23;8.10;;;;;;;;;;5095879;28;20419;-64
2022/07/24 10:31:05;;;;;;;8.90;8.10;;;;;;;;;;5096774;28;20429;-63
2022/07/24 10:33:33;;;;;;;8.93;7.07;;;;;;;;;;5096410;28;20449;-63
2022/07/24 10:36:02;;;;;;;14.87;8.73;;;;;;;;;;5097105;28;20441;-63
2022/07/24 10:38:31;;;;;;;8.60;7.23;;;;;;;;;;5096701;28;20456;-63
2022/07/24 10:41:03;;;;;;;8.33;7.40;;;;;;;;;;5095988;28;20455;-63
2022/07/24 10:43:31;;;;;;;8.83;7.57;;;;;;;;;;5096735;28;20447;-64
2022/07/24 10:46:16;;;;;;;8.20;7.40;;;;;;;;;;5096642;28;20454;-63
2022/07/24 10:48:43;;;;;;;9.47;7.70;;;;;;;;;;5096596;28;20433;-64
2022/07/24 10:51:13;;;;;;;8.20;7.33;;;;;;;;;;5096527;28;20420;-62
2022/07/24 10:53:51;;;;;;;8.17;7.47;;;;;;;;;;5096875;28;20455;-63
2022/07/24 10:56:22;;;;;;;10.93;7.60;;;;;;;;;;5096528;28;20879;-63
2022/07/24 10:58:53;;;;;;;9.77;7.23;;;;;;;;;;5096071;28;20469;-64
2022/07/24 11:01:30;;;;;;;13.30;8.20;;;;;;;;;;5095974;28;21088;-63
2022/07/24 11:03:58;;;;;;;7.63;6.93;;;;;;;;;;5096704;28;20449;-64
2022/07/24 11:06:40;;;;;;;9.77;8.10;;;;;;;;;;5096697;28;20416;-63
2022/07/24 11:09:07;;;;;;;8.57;7.80;;;;;;;;;;5096428;28;20483;-64
2022/07/24 11:11:41;;;;;;;10.73;7.90;;;;;;;;;;5096172;28;20545;-64
2022/07/24 11:14:08;;;;;;;8.83;7.93;;;;;;;;;;5096015;28;20487;-62
2022/07/24 11:16:36;;;;;;;7.77;6.67;;;;;;;;;;5096384;28;20565;-63
2022/07/24 11:19:24;;;;;;;8.60;7.80;;;;;;;;;;5095472;28;20441;-63
2022/07/24 11:22:02;;;;;;;10.97;8.43;;;;;;;;;;5090931;28;20483;-62
2022/07/24 11:24:30;;;;;;;8.60;7.87;;;;;;;;;;5095733;28;20883;-64
2022/07/24 11:26:59;;;;;;;8.20;7.50;;;;;;;;;;5094923;28;20574;-64
2022/07/24 11:29:27;;;;;;;8.97;8.17;;;;;;;;;;5095198;28;20517;-62
2022/07/24 11:31:56;;;;;;;9.10;8.20;;;;;;;;;;5095404;28;20451;-62
2022/07/24 11:34:25;;;;;;;10.13;9.13;;;;;;;;;;5095473;28;20482;-62
2022/07/24 11:36:54;;;;;;;9.10;8.20;;;;;;;;;;5095718;28;20439;-62
2022/07/24 11:39:22;;;;;;;10.07;9.00;;;;;;;;;;5094000;28;20446;-63
2022/07/24 11:41:50;;;;;;;8.53;7.93;;;;;;;;;;5095269;28;20491;-63
2022/07/24 11:44:25;;;;;;;8.87;8.00;;;;;;;;;;5095160;28;20536;-63
2022/07/24 11:46:52;;;;;;;16.10;8.80;;;;;;;;;;5095786;28;20425;-63
2022/07/24 11:49:19;;;;;;;8.47;7.77;;;;;;;;;;5095107;28;20538;-63
2022/07/24 11:51:47;;;;;;;8.80;8.10;;;;;;;;;;5095505;28;20456;-63
2022/07/24 11:54:16;;;;;;;8.93;8.13;;;;;;;;;;5095675;28;20452;-64
2022/07/24 11:56:43;;;;;;;8.80;8.00;;;;;;;;;;5095319;28;20442;-64
2022/07/24 11:59:24;;;;;;;9.60;8.70;;;;;;;;;;5094998;28;20443;-64
2022/07/24 12:01:51;;;;;;;9.13;8.33;;;;;;;;;;5095252;28;20445;-63
2022/07/24 12:04:21;;;;;;;9.57;8.53;;;;;;;;;;5095617;28;20972;-63
2022/07/24 12:06:48;;;;;;;9.60;8.67;;;;;;;;;;5094959;28;20430;-64
2022/07/24 12:09:15;;;;;;;9.00;8.10;;;;;;;;;;5094814;28;20989;-65
2022/07/24 12:11:43;;;;;;;11.37;9.27;;;;;;;;;;5094913;28;20527;-64
2022/07/24 12:14:20;;;;;;;9.70;8.63;;;;;;;;;;5095556;28;20551;-64
2022/07/24 12:16:54;;;;;;;9.27;8.37;;;;;;;;;;5094492;28;20536;-64
2022/07/24 12:19:22;;;;;;;8.90;8.07;;;;;;;;;;5093723;28;20438;-64
2022/07/24 12:21:51;;;;;;;9.30;8.50;;;;;;;;;;5094655;28;20486;-64
2022/07/24 12:24:18;;;;;;;14.10;7.63;;;;;;;;;;5094425;28;20429;-65
2022/07/24 12:26:52;;;;;;;9.90;8.90;;;;;;;;;;5094348;28;20450;-64
2022/07/24 12:29:20;;;;;;;10.93;8.43;;;;;;;;;;5095013;28;20481;-64
2022/07/24 12:31:47;;;;;;;8.63;7.93;;;;;;;;;;5094223;28;20534;-63
2022/07/24 12:34:15;;;;;;;9.73;8.80;;;;;;;;;;5094638;28;20810;-64
2022/07/24 12:36:43;;;;;;;9.33;8.40;;;;;;;;;;5094312;28;20834;-64
2022/07/24 12:39:13;;;;;;;8.13;7.43;;;;;;;;;;5093876;28;20434;-64
2022/07/24 12:41:44;;;;;;;9.17;8.27;;;;;;;;;;5093842;28;20481;-64
2022/07/24 12:44:12;;;;;;;8.37;7.57;;;;;;;;;;5094092;28;20423;-64
2022/07/24 12:46:40;;;;;;;9.17;8.33;;;;;;;;;;5094185;28;20423;-64
2022/07/24 12:49:07;;;;;;;8.90;8.20;;;;;;;;;;5094333;28;20418;-64
2022/07/24 12:51:49;;;;;;;8.23;7.53;;;;;;;;;;5094177;28;20457;-64
2022/07/24 12:54:18;;;;;;;7.40;6.80;;;;;;;;;;5094278;28;20418;-64
2022/07/24 12:56:45;;;;;;;8.93;8.10;;;;;;;;;;5094113;28;20418;-64
2022/07/24 12:59:23;;;;;;;10.60;7.13;;;;;;;;;;5093239;28;20870;-65
2022/07/24 13:01:51;;;;;;;6.93;6.47;;;;;;;;;;5094018;28;20813;-63
2022/07/24 13:04:20;;;;;;;8.83;7.60;;;;;;;;;;5094118;28;20422;-64
2022/07/24 13:06:48;;;;;;;8.30;7.60;;;;;;;;;;5094125;28;20421;-64
2022/07/24 13:09:17;;;;;;;7.20;6.70;;;;;;;;;;5094221;28;20412;-64
2022/07/24 13:11:46;;;;;;;9.40;8.47;;;;;;;;;;5093489;28;20463;-64
2022/07/24 13:14:15;;;;;;;8.33;7.70;;;;;;;;;;5094357;28;20526;-64
2022/07/24 13:16:43;;;;;;;7.23;6.73;;;;;;;;;;5093531;28;20447;-64
2022/07/24 13:19:11;;;;;;;7.80;7.10;;;;;;;;;;5093038;28;20462;-64
2022/07/24 13:21:38;;;;;;;8.27;7.07;;;;;;;;;;5093504;28;20452;-64
2022/07/24 13:24:06;;;;;;;8.60;7.90;;;;;;;;;;5093393;28;20524;-64
2022/07/24 13:26:34;;;;;;;8.57;7.87;;;;;;;;;;5093620;28;20424;-63
2022/07/24 13:29:02;;;;;;;8.70;8.00;;;;;;;;;;5093825;28;20420;-63
2022/07/24 13:31:29;;;;;;;8.80;7.90;;;;;;;;;;5093150;28;20446;-64
2022/07/24 13:33:56;;;;;;;8.17;7.40;;;;;;;;;;5093686;28;20418;-63
2022/07/24 13:36:23;;;;;;;14.93;8.83;;;;;;;;;;5093551;28;20425;-65
2022/07/24 13:38:51;;;;;;;8.57;7.57;;;;;;;;;;5092549;28;20507;-65
2022/07/24 13:41:18;;;;;;;7.67;7.07;;;;;;;;;;5093106;28;20485;-65
2022/07/24 13:43:47;;;;;;;9.63;8.53;;;;;;;;;;5093498;28;20413;-64
2022/07/24 13:46:14;;;;;;;8.73;7.83;;;;;;;;;;5093049;28;21009;-64
2022/07/24 13:48:41;;;;;;;7.73;7.07;;;;;;;;;;5092911;28;20998;-64
2022/07/24 13:51:09;;;;;;;9.03;7.33;;;;;;;;;;5093010;28;20448;-65
2022/07/24 13:53:37;;;;;;;9.30;7.07;;;;;;;;;;5092952;28;20528;-64
2022/07/24 13:56:05;;;;;;;8.13;7.33;;;;;;;;;;5093258;28;20443;-64
2022/07/24 13:58:34;;;;;;;7.87;7.20;;;;;;;;;;5093211;28;20443;-64
2022/07/24 14:01:03;;;;;;;8.03;7.43;;;;;;;;;;5092275;28;20848;-64
2022/07/24 14:03:30;;;;;;;7.03;6.53;;;;;;;;;;5095040;28;20443;-63
2022/07/24 14:05:58;;;;;;;8.30;7.70;;;;;;;;;;5097415;28;20445;-63
2022/07/24 14:08:25;;;;;;;7.63;6.73;;;;;;;;;;5097178;28;20478;-63
2022/07/24 14:10:52;;;;;;;7.57;7.00;;;;;;;;;;5097182;28;20501;-63
2022/07/24 14:13:19;;;;;;;8.50;7.80;;;;;;;;;;5097080;28;20475;-63
2022/07/24 14:15:47;;;;;;;8.23;7.43;;;;;;;;;;5097772;28;20496;-63
2022/07/24 14:18:16;;;;;;;8.73;7.90;;;;;;;;;;5097224;28;20428;-63
2022/07/24 14:20:43;;;;;;;7.67;6.90;;;;;;;;;;5095971;28;20536;-63
2022/07/24 14:23:10;;;;;;;7.70;6.37;;;;;;;;;;5096555;28;20683;-63
2022/07/24 14:25:37;;;;;;;7.60;6.80;;;;;;;;;;5097038;28;20566;-63
2022/07/24 14:28:05;;;;;;;8.50;7.80;;;;;;;;;;5096739;28;20470;-63
2022/07/24 14:30:32;;;;;;;7.83;7.17;;;;;;;;;;5096909;28;20442;-63
2022/07/24 14:32:59;;;;;;;7.80;7.00;;;;;;;;;;5096344;28;20550;-64
2022/07/24 14:35:30;;;;;;;7.87;7.17;;;;;;;;;;5097108;28;20444;-64
2022/07/24 14:37:58;;;;;;;7.67;7.03;;;;;;;;;;5096286;28;20897;-64
2022/07/24 14:40:25;;;;;;;7.97;7.27;;;;;;;;;;5095854;28;20522;-63
2022/07/24 14:42:53;;;;;;;9.23;7.40;;;;;;;;;;5096241;28;20565;-64
2022/07/24 14:45:20;;;;;;;8.60;7.90;;;;;;;;;;5096899;28;20439;-63
2022/07/24 14:47:47;;;;;;;8.43;7.83;;;;;;;;;;5096479;28;20784;-63